Time;durP1;ratioP1;P1;durP2;ratioP2;P2;SDS_P1;SDS_P2;PMS_P1;PMS_P2;Temp;Humidity;BMP_temperature;BMP_pressure;BME280_temperature;BME280_humidity;BME280_pressure;Samples;Min_cycle;Max_cycle;Signal;HPM_P1;HPM_P2
2020/12/19 00:00:00;;;;;;;25.75;15.30;;;3.00;99.90;;;;;;5094973;28;20771;-88
2020/12/19 00:02:26;;;;;;;26.55;15.70;;;3.00;99.90;;;;;;5094934;28;20227;-88
2020/12/19 00:04:52;;;;;;;27.20;16.17;;;3.10;99.90;;;;;;5094496;28;20219;-84
2020/12/19 00:07:18;;;;;;;24.37;15.30;;;3.00;99.90;;;;;;5094888;28;20565;-86
2020/12/19 00:09:45;;;;;;;26.45;16.50;;;3.00;99.90;;;;;;5094842;28;20480;-86
2020/12/19 00:12:12;;;;;;;29.30;15.10;;;3.00;99.90;;;;;;5094583;28;20205;-86
2020/12/19 00:14:38;;;;;;;28.38;14.88;;;3.00;99.90;;;;;;5094724;28;20277;-85
2020/12/19 00:17:04;;;;;;;29.20;16.63;;;3.00;99.90;;;;;;5094467;28;20543;-86
2020/12/19 00:19:29;;;;;;;27.85;15.73;;;2.90;99.90;;;;;;5094937;28;20453;-86
2020/12/19 00:21:55;;;;;;;25.37;15.27;;;3.00;99.90;;;;;;5094345;28;20181;-87
2020/12/19 00:24:21;;;;;;;25.57;15.90;;;3.00;99.90;;;;;;5094601;28;20443;-87
2020/12/19 00:26:48;;;;;;;24.08;14.48;;;2.90;99.90;;;;;;5094308;28;20533;-87
2020/12/19 00:29:14;;;;;;;27.60;15.55;;;2.90;99.90;;;;;;5077847;28;20275;-87
2020/12/19 00:31:40;;;;;;;29.27;15.63;;;2.90;99.90;;;;;;5093518;28;20185;-87
2020/12/19 00:34:07;;;;;;;29.55;15.10;;;2.90;99.90;;;;;;5093629;28;20289;-87
2020/12/19 00:36:34;;;;;;;25.02;14.90;;;2.90;99.90;;;;;;5094059;28;20275;-87
2020/12/19 00:39:00;;;;;;;33.38;15.27;;;2.80;99.90;;;;;;5093875;28;20266;-87
2020/12/19 00:41:27;;;;;;;27.58;15.15;;;2.80;99.90;;;;;;5094166;28;20242;-88
2020/12/19 00:43:54;;;;;;;29.25;17.00;;;2.80;99.90;;;;;;5094210;28;20200;-88
2020/12/19 00:46:21;;;;;;;25.90;15.25;;;2.80;99.90;;;;;;5093967;28;20275;-87
2020/12/19 00:48:48;;;;;;;25.05;16.73;;;2.80;99.90;;;;;;5089771;28;20279;-86
2020/12/19 00:51:14;;;;;;;27.77;15.75;;;2.80;99.90;;;;;;5082169;28;20297;-86
2020/12/19 00:53:42;;;;;;;22.05;13.93;;;2.70;99.90;;;;;;5093453;28;20220;-87
2020/12/19 00:56:16;;;;;;;24.83;16.30;;;2.80;99.90;;;;;;5093509;28;20606;-87
2020/12/19 00:58:42;;;;;;;28.52;16.42;;;2.80;99.90;;;;;;5089040;28;20751;-87
2020/12/19 01:01:09;;;;;;;27.20;14.52;;;2.70;99.90;;;;;;5093247;28;20939;-86
2020/12/19 01:03:35;;;;;;;26.05;14.52;;;2.70;99.90;;;;;;5092932;28;20196;-87
2020/12/19 01:06:01;;;;;;;24.90;14.80;;;2.70;99.90;;;;;;5093259;28;20230;-86
2020/12/19 01:08:27;;;;;;;24.83;15.15;;;2.70;99.90;;;;;;5093170;28;21005;-87
2020/12/19 01:10:53;;;;;;;25.23;15.50;;;2.70;99.90;;;;;;5093287;28;20271;-87
2020/12/19 01:13:19;;;;;;;30.25;16.80;;;2.70;99.90;;;;;;5092866;28;20236;-86
2020/12/19 01:15:45;;;;;;;27.27;15.93;;;2.70;99.90;;;;;;5093085;28;20227;-86
2020/12/19 01:18:12;;;;;;;33.03;15.60;;;2.70;99.90;;;;;;5093143;28;21032;-86
2020/12/19 01:20:38;;;;;;;26.85;15.13;;;2.70;99.90;;;;;;5098788;28;20275;-87
2020/12/19 01:23:03;;;;;;;28.27;14.97;;;2.60;99.90;;;;;;5100101;28;20208;-87
2020/12/19 01:25:30;;;;;;;26.40;14.75;;;2.60;99.90;;;;;;5098234;28;20482;-86
2020/12/19 01:27:55;;;;;;;24.92;14.70;;;2.60;99.90;;;;;;5088057;28;20296;-87
2020/12/19 01:30:21;;;;;;;24.23;14.93;;;2.60;99.90;;;;;;5103057;28;20260;-86
2020/12/19 01:32:49;;;;;;;26.30;15.20;;;2.60;99.90;;;;;;5093371;28;20655;-89
2020/12/19 01:35:17;;;;;;;27.02;15.52;;;2.60;99.90;;;;;;5093958;28;20964;-85
2020/12/19 01:37:43;;;;;;;27.35;15.55;;;2.60;99.90;;;;;;5093220;28;20189;-85
2020/12/19 01:40:09;;;;;;;29.02;16.70;;;2.60;99.90;;;;;;5093128;28;20678;-85
2020/12/19 01:42:36;;;;;;;28.48;15.68;;;2.60;99.90;;;;;;5093068;28;20184;-85
2020/12/19 01:45:02;;;;;;;27.05;16.23;;;2.60;99.90;;;;;;5092590;28;20188;-82
2020/12/19 01:47:28;;;;;;;31.08;16.38;;;2.60;99.90;;;;;;5093098;28;20275;-82
2020/12/19 01:49:54;;;;;;;22.20;13.23;;;2.60;99.90;;;;;;5093121;28;20279;-82
2020/12/19 01:52:25;;;;;;;25.63;14.70;;;2.60;99.90;;;;;;5093061;28;20306;-85
2020/12/19 01:54:51;;;;;;;29.65;16.10;;;2.60;99.90;;;;;;5093230;28;20604;-83
2020/12/19 01:57:18;;;;;;;27.40;15.73;;;2.60;99.90;;;;;;5092853;28;20214;-83
2020/12/19 01:59:45;;;;;;;29.55;14.13;;;2.60;99.90;;;;;;5092794;28;20478;-83
2020/12/19 02:02:11;;;;;;;26.58;15.15;;;2.50;99.90;;;;;;5093030;28;20631;-85
2020/12/19 02:04:38;;;;;;;26.33;15.15;;;2.50;99.90;;;;;;5093145;28;20524;-86
2020/12/19 02:07:05;;;;;;;26.30;14.23;;;2.50;99.90;;;;;;5085981;28;20276;-86
2020/12/19 02:09:36;;;;;;;24.27;14.50;;;2.50;99.90;;;;;;5091646;28;20663;-87
2020/12/19 02:12:03;;;;;;;25.90;14.48;;;2.50;99.90;;;;;;5092375;28;20212;-86
2020/12/19 02:14:30;;;;;;;28.63;14.07;;;2.50;99.90;;;;;;5092497;28;20223;-87
2020/12/19 02:16:57;;;;;;;29.70;15.48;;;2.50;99.90;;;;;;5091978;28;20731;-88
2020/12/19 02:19:24;;;;;;;32.22;16.00;;;2.40;99.90;;;;;;5092521;28;20208;-87
2020/12/19 02:21:50;;;;;;;27.65;15.80;;;2.40;99.90;;;;;;5092595;28;20601;-87
2020/12/19 02:24:17;;;;;;;26.38;14.73;;;2.40;99.90;;;;;;5092513;28;20698;-87
2020/12/19 02:26:46;;;;;;;24.95;15.13;;;2.40;99.90;;;;;;5084610;28;20189;-88
2020/12/19 02:29:12;;;;;;;30.65;16.10;;;2.40;99.90;;;;;;5092522;28;20177;-87
2020/12/19 02:31:38;;;;;;;27.00;14.18;;;2.40;99.90;;;;;;5092584;28;20292;-89
2020/12/19 02:34:04;;;;;;;27.88;15.88;;;2.40;99.90;;;;;;5092326;28;20785;-88
2020/12/19 02:36:30;;;;;;;24.27;14.77;;;2.40;99.90;;;;;;5092439;28;20189;-86
2020/12/19 02:38:56;;;;;;;23.20;14.43;;;2.40;99.90;;;;;;5092099;28;20451;-87
2020/12/19 02:41:23;;;;;;;29.47;16.20;;;2.40;99.90;;;;;;5092144;28;20477;-88
2020/12/19 02:43:53;;;;;;;24.63;14.60;;;2.40;99.90;;;;;;5092023;28;20533;-88
2020/12/19 02:46:19;;;;;;;25.17;14.57;;;2.40;99.90;;;;;;5092476;28;20264;-88
2020/12/19 02:48:45;;;;;;;22.98;13.82;;;2.40;99.90;;;;;;5092393;28;20185;-88
2020/12/19 02:51:11;;;;;;;29.05;15.10;;;2.40;99.90;;;;;;5092578;28;20611;-88
2020/12/19 02:53:37;;;;;;;23.38;14.25;;;2.40;99.90;;;;;;5092228;28;20216;-86
2020/12/19 02:56:03;;;;;;;24.90;13.80;;;2.40;99.90;;;;;;5093762;28;20223;-87
2020/12/19 02:58:30;;;;;;;23.63;14.23;;;2.30;99.90;;;;;;5096557;28;20616;-85
2020/12/19 03:00:56;;;;;;;23.38;13.80;;;2.30;99.90;;;;;;5096581;28;20183;-85
2020/12/19 03:03:22;;;;;;;26.60;15.40;;;2.30;99.90;;;;;;5096350;28;20181;-85
2020/12/19 03:05:48;;;;;;;31.27;15.93;;;2.30;99.90;;;;;;5096243;28;20470;-84
2020/12/19 03:08:14;;;;;;;29.17;16.08;;;2.30;99.90;;;;;;5096040;28;20570;-84
2020/12/19 03:10:40;;;;;;;24.07;14.10;;;2.30;99.90;;;;;;5096156;28;20644;-86
2020/12/19 03:13:06;;;;;;;23.75;12.90;;;2.30;99.90;;;;;;5096129;28;20523;-86
2020/12/19 03:15:33;;;;;;;25.40;13.82;;;2.30;99.90;;;;;;5096201;28;20279;-87
2020/12/19 03:17:59;;;;;;;28.88;13.98;;;2.30;99.90;;;;;;5096025;28;20739;-88
2020/12/19 03:20:25;;;;;;;25.03;15.27;;;2.30;99.90;;;;;;5095932;28;20188;-87
2020/12/19 03:22:51;;;;;;;23.95;14.02;;;2.30;99.90;;;;;;5095885;28;20537;-87
2020/12/19 03:25:17;;;;;;;24.63;14.05;;;2.20;99.90;;;;;;5095460;28;20670;-86
2020/12/19 03:27:43;;;;;;;25.33;14.27;;;2.20;99.90;;;;;;5088675;28;20220;-86
2020/12/19 03:30:09;;;;;;;25.80;14.33;;;2.20;99.90;;;;;;5095715;28;20196;-86
2020/12/19 03:32:36;;;;;;;27.25;14.15;;;2.30;99.90;;;;;;5095680;28;20485;-86
2020/12/19 03:35:02;;;;;;;23.65;14.38;;;2.20;99.90;;;;;;5095848;28;20267;-85
2020/12/19 03:37:28;;;;;;;24.67;13.30;;;2.20;99.90;;;;;;5093358;28;20706;-85
2020/12/19 03:39:54;;;;;;;21.43;12.53;;;2.20;99.90;;;;;;5091577;28;20213;-85
2020/12/19 03:42:20;;;;;;;23.90;13.80;;;2.30;99.90;;;;;;5095568;28;20910;-86
2020/12/19 03:44:46;;;;;;;25.00;14.50;;;2.20;99.90;;;;;;5095634;28;20442;-86
2020/12/19 03:47:12;;;;;;;22.17;12.93;;;2.20;99.90;;;;;;5095657;28;20588;-85
2020/12/19 03:49:38;;;;;;;27.98;14.98;;;2.20;99.90;;;;;;5095313;28;20235;-85
2020/12/19 03:52:04;;;;;;;23.10;13.15;;;2.20;99.90;;;;;;5095306;28;20740;-85
2020/12/19 03:54:30;;;;;;;19.20;13.25;;;2.30;99.90;;;;;;5086658;28;20292;-86
2020/12/19 03:56:56;;;;;;;23.83;13.30;;;2.20;99.90;;;;;;5085008;28;20200;-86
2020/12/19 03:59:22;;;;;;;33.50;14.90;;;2.20;99.90;;;;;;5095205;28;20470;-86
2020/12/19 04:01:48;;;;;;;24.63;14.60;;;2.30;99.90;;;;;;5095295;28;20492;-87
2020/12/19 04:04:14;;;;;;;24.10;14.37;;;2.20;99.90;;;;;;5095091;28;20449;-88
2020/12/19 04:06:41;;;;;;;25.37;14.20;;;2.20;99.90;;;;;;5094842;28;20492;-88
2020/12/19 04:09:07;;;;;;;30.88;13.50;;;2.20;99.90;;;;;;5095349;28;20877;-84
2020/12/19 04:11:33;;;;;;;25.90;15.60;;;2.20;99.90;;;;;;5095323;28;20180;-83
2020/12/19 04:13:59;;;;;;;27.37;14.53;;;2.20;99.90;;;;;;5094693;28;20482;-83
2020/12/19 04:16:25;;;;;;;22.60;13.77;;;2.20;99.90;;;;;;5094977;28;20530;-83
2020/12/19 04:18:51;;;;;;;22.30;12.43;;;2.20;99.90;;;;;;5095052;28;20279;-84
2020/12/19 04:21:17;;;;;;;26.77;13.13;;;2.20;99.90;;;;;;5094836;28;20220;-85
2020/12/19 04:23:44;;;;;;;26.38;14.40;;;2.10;99.90;;;;;;5094957;28;20496;-84
2020/12/19 04:26:10;;;;;;;22.42;13.52;;;2.10;99.90;;;;;;5095036;28;20271;-87
2020/12/19 04:28:36;;;;;;;21.73;13.47;;;2.10;99.90;;;;;;5078046;28;20219;-87
2020/12/19 04:31:02;;;;;;;24.03;14.03;;;2.10;99.90;;;;;;5094776;28;20838;-84
2020/12/19 04:33:28;;;;;;;30.63;14.77;;;2.10;99.90;;;;;;5094428;28;20913;-84
2020/12/19 04:35:54;;;;;;;21.47;13.50;;;2.10;99.90;;;;;;5090134;28;20191;-84
2020/12/19 04:38:20;;;;;;;30.45;14.23;;;2.10;99.90;;;;;;5090402;28;20881;-83
2020/12/19 04:40:47;;;;;;;24.33;13.05;;;2.10;99.90;;;;;;5091283;28;20227;-85
2020/12/19 04:43:15;;;;;;;25.60;12.65;;;2.10;99.90;;;;;;5094484;28;20291;-84
2020/12/19 04:45:42;;;;;;;25.65;13.60;;;2.10;99.90;;;;;;5094303;28;20318;-84
2020/12/19 04:48:08;;;;;;;23.80;13.35;;;2.10;99.90;;;;;;5094363;28;20275;-84
2020/12/19 04:50:39;;;;;;;23.73;13.63;;;2.10;99.90;;;;;;5094123;28;20279;-83
2020/12/19 04:53:13;;;;;;;28.25;14.57;;;2.00;99.90;;;;;;5094379;28;20706;-84
2020/12/19 04:55:40;;;;;;;24.83;14.02;;;2.00;99.90;;;;;;5092760;28;20363;-84
2020/12/19 04:58:08;;;;;;;23.10;12.85;;;2.00;99.90;;;;;;5088057;28;20272;-84
2020/12/19 05:00:34;;;;;;;22.02;12.88;;;2.00;99.90;;;;;;5089935;28;20191;-84
2020/12/19 05:03:00;;;;;;;21.17;12.87;;;2.00;99.90;;;;;;5087796;28;20189;-84
2020/12/19 05:05:26;;;;;;;21.83;12.13;;;2.00;99.90;;;;;;5090918;28;20458;-83
2020/12/19 05:07:52;;;;;;;22.83;12.67;;;2.00;99.90;;;;;;5094116;28;20942;-83
2020/12/19 05:10:18;;;;;;;20.87;13.53;;;2.00;99.90;;;;;;5093732;28;20488;-84
2020/12/19 05:12:51;;;;;;;23.13;12.05;;;2.00;99.90;;;;;;5082357;28;20914;-85
2020/12/19 05:15:18;;;;;;;27.10;13.52;;;2.00;99.90;;;;;;5086992;28;20272;-85
2020/12/19 05:17:50;;;;;;;24.23;14.07;;;2.00;99.90;;;;;;5093539;28;20273;-83
2020/12/19 05:20:17;;;;;;;25.15;13.70;;;2.00;99.90;;;;;;5077098;28;20605;-83
2020/12/19 05:22:46;;;;;;;24.55;13.43;;;2.00;99.90;;;;;;5093670;28;20717;-83
2020/12/19 05:25:15;;;;;;;21.33;12.40;;;2.00;99.90;;;;;;5092383;28;20298;-84
2020/12/19 05:27:43;;;;;;;21.15;13.60;;;2.00;99.90;;;;;;5092574;28;20279;-84
2020/12/19 05:30:09;;;;;;;21.50;12.85;;;2.10;99.90;;;;;;5084623;28;20189;-82
2020/12/19 05:32:42;;;;;;;24.73;13.35;;;2.10;99.90;;;;;;5093381;28;20217;-86
2020/12/19 05:35:08;;;;;;;23.17;13.07;;;2.00;99.90;;;;;;5087850;28;20280;-86
2020/12/19 05:37:34;;;;;;;26.73;14.00;;;2.10;99.90;;;;;;5082038;28;20269;-86
2020/12/19 05:40:00;;;;;;;19.23;12.80;;;2.00;99.90;;;;;;5087741;28;20216;-86
2020/12/19 05:42:26;;;;;;;21.45;13.63;;;2.00;99.90;;;;;;5081521;28;20611;-85
2020/12/19 05:44:52;;;;;;;26.60;14.00;;;2.00;99.90;;;;;;5091585;28;20279;-86
2020/12/19 05:47:18;;;;;;;44.03;24.03;;;2.10;99.90;;;;;;5091298;28;20189;-86
2020/12/19 05:49:45;;;;;;;25.35;14.30;;;2.10;99.90;;;;;;5078371;28;20530;-86
2020/12/19 05:52:11;;;;;;;25.10;13.27;;;2.00;99.90;;;;;;5093030;28;20695;-84
2020/12/19 05:54:40;;;;;;;28.23;15.75;;;2.00;99.90;;;;;;5093021;28;20268;-85
2020/12/19 05:57:12;;;;;;;24.88;12.55;;;2.10;99.90;;;;;;5082250;28;20640;-87
2020/12/19 05:59:38;;;;;;;24.70;13.70;;;2.00;99.90;;;;;;5081846;28;20736;-87
2020/12/19 06:02:06;;;;;;;25.95;13.68;;;2.00;99.90;;;;;;5087212;28;20202;-86
2020/12/19 06:04:32;;;;;;;23.60;13.13;;;2.00;99.90;;;;;;5093108;28;20271;-87
2020/12/19 06:07:00;;;;;;;23.98;13.73;;;2.00;99.90;;;;;;5092808;28;20189;-87
2020/12/19 06:09:27;;;;;;;23.77;12.68;;;2.00;99.90;;;;;;5092970;28;20184;-87
2020/12/19 06:12:00;;;;;;;27.48;13.32;;;2.00;99.90;;;;;;5092704;28;20275;-86
2020/12/19 06:14:34;;;;;;;28.38;15.48;;;2.00;99.90;;;;;;5091169;28;20221;-87
2020/12/19 06:17:08;;;;;;;25.88;13.50;;;2.00;99.90;;;;;;5083766;28;20264;-87
2020/12/19 06:19:35;;;;;;;30.27;14.50;;;2.00;99.90;;;;;;5072579;28;20707;-87
2020/12/19 06:22:02;;;;;;;23.35;13.05;;;2.00;99.90;;;;;;5090764;28;20223;-85
2020/12/19 06:24:45;;;;;;;28.70;15.27;;;2.00;99.90;;;;;;5090904;28;20272;-85
2020/12/19 06:27:39;;;;;;;28.08;13.85;;;2.00;99.90;;;;;;5088710;28;20203;-85
2020/12/19 06:30:06;;;;;;;21.90;13.68;;;2.10;99.90;;;;;;5088212;28;20195;-85
2020/12/19 06:32:32;;;;;;;22.70;14.30;;;2.00;99.90;;;;;;5081505;28;20226;-85
2020/12/19 06:35:00;;;;;;;25.77;13.52;;;2.00;99.90;;;;;;5092789;28;20588;-84
2020/12/19 06:37:27;;;;;;;27.23;14.57;;;2.00;99.90;;;;;;5092401;28;20279;-85
2020/12/19 06:40:10;;;;;;;24.10;14.63;;;2.00;99.90;;;;;;5086852;28;20222;-84
2020/12/19 06:42:37;;;;;;;24.45;13.27;;;2.10;99.90;;;;;;5092249;28;20275;-84
2020/12/19 06:45:23;;;;;;;24.23;14.15;;;2.10;99.90;;;;;;5084679;28;20223;-84
2020/12/19 06:47:50;;;;;;;27.52;13.82;;;2.10;99.90;;;;;;5079231;28;20189;-84
2020/12/19 06:50:16;;;;;;;23.00;13.48;;;2.10;99.90;;;;;;5092553;28;20314;-85
2020/12/19 06:52:54;;;;;;;23.90;14.70;;;2.10;99.90;;;;;;5092113;28;20638;-84
2020/12/19 06:55:21;;;;;;;24.90;14.85;;;2.10;99.90;;;;;;5092336;28;20715;-84
2020/12/19 06:57:51;;;;;;;24.30;14.07;;;2.10;99.90;;;;;;5092202;28;20272;-84
2020/12/19 07:00:19;;;;;;;26.45;15.10;;;2.10;99.90;;;;;;5092460;28;20181;-84
2020/12/19 07:02:53;;;;;;;24.45;13.45;;;2.10;99.90;;;;;;5085271;28;20204;-83
2020/12/19 07:05:21;;;;;;;20.20;13.45;;;2.10;99.90;;;;;;5078274;28;20185;-84
2020/12/19 07:07:47;;;;;;;34.17;15.35;;;2.10;99.90;;;;;;5091789;28;20209;-84
2020/12/19 07:10:14;;;;;;;25.35;14.05;;;2.10;99.90;;;;;;5092136;28;20188;-84
2020/12/19 07:12:42;;;;;;;23.15;13.10;;;2.10;99.90;;;;;;5096162;28;20207;-86
2020/12/19 07:15:11;;;;;;;23.52;13.27;;;2.10;99.90;;;;;;5097993;28;20185;-84
2020/12/19 07:17:44;;;;;;;24.15;13.88;;;2.10;99.90;;;;;;5092274;28;20188;-85
2020/12/19 07:20:11;;;;;;;26.05;16.05;;;2.20;99.90;;;;;;5092076;28;20181;-84
2020/12/19 07:22:38;;;;;;;28.48;14.70;;;2.20;99.90;;;;;;5091828;28;20188;-80
2020/12/19 07:25:04;;;;;;;25.88;15.00;;;2.20;99.90;;;;;;5090371;28;20292;-85
2020/12/19 07:27:31;;;;;;;26.75;13.93;;;2.20;99.90;;;;;;5090925;28;20196;-84
2020/12/19 07:30:00;;;;;;;28.27;14.68;;;2.20;99.90;;;;;;5086626;28;20644;-86
2020/12/19 07:32:27;;;;;;;28.42;15.43;;;2.20;99.90;;;;;;5093045;28;20318;-86
2020/12/19 07:34:54;;;;;;;24.92;14.45;;;2.30;99.90;;;;;;5098840;28;20321;-85
2020/12/19 07:37:21;;;;;;;28.38;14.70;;;2.30;99.90;;;;;;5094872;28;20213;-86
2020/12/19 07:39:47;;;;;;;27.63;16.02;;;2.30;99.90;;;;;;5091830;28;20698;-85
2020/12/19 07:42:13;;;;;;;25.55;15.80;;;2.30;99.90;;;;;;5093412;28;20272;-87
2020/12/19 07:44:40;;;;;;;22.15;14.88;;;2.30;99.90;;;;;;5095539;28;20275;-92
2020/12/19 07:47:08;;;;;;;24.90;14.77;;;2.30;99.90;;;;;;5095919;28;20237;-91
2020/12/19 07:49:37;;;;;;;26.20;14.98;;;2.40;99.90;;;;;;5095347;28;20191;-92
2020/12/19 07:52:05;;;;;;;24.45;15.82;;;2.40;99.90;;;;;;5092393;28;20188;-92
2020/12/19 07:54:31;;;;;;;27.60;15.20;;;2.40;99.90;;;;;;5095513;28;20215;-93
2020/12/19 07:56:58;;;;;;;27.75;15.13;;;2.40;99.90;;;;;;5095483;28;20648;-92
2020/12/19 07:59:24;;;;;;;24.65;14.60;;;2.50;99.90;;;;;;5095180;28;20189;-92
2020/12/19 08:01:51;;;;;;;26.83;16.23;;;2.50;99.90;;;;;;5095330;28;20318;-92
2020/12/19 08:04:17;;;;;;;28.38;15.77;;;2.50;99.90;;;;;;5095279;28;20196;-91
2020/12/19 08:06:44;;;;;;;23.20;13.73;;;2.60;99.90;;;;;;5097141;28;20185;-91
2020/12/19 08:09:10;;;;;;;26.50;14.70;;;2.60;99.90;;;;;;5093157;28;20442;-93
2020/12/19 08:11:45;;;;;;;28.35;14.75;;;2.60;99.90;;;;;;5095040;28;20719;-92
2020/12/19 08:14:11;;;;;;;27.88;15.93;;;2.70;99.90;;;;;;5095409;28;20750;-93
2020/12/19 08:16:37;;;;;;;24.50;14.98;;;2.70;99.90;;;;;;5095593;28;20275;-93
2020/12/19 08:19:06;;;;;;;27.42;16.50;;;2.70;99.90;;;;;;5079265;28;20286;-93
2020/12/19 08:21:33;;;;;;;30.50;15.23;;;2.70;99.90;;;;;;5094156;28;20177;-94
2020/12/19 08:24:00;;;;;;;30.00;16.40;;;2.70;99.90;;;;;;5095411;28;20705;-93
2020/12/19 08:26:26;;;;;;;21.70;15.25;;;2.70;99.90;;;;;;5095499;28;20192;-92
2020/12/19 08:29:05;;;;;;;31.13;14.73;;;2.80;99.90;;;;;;5091478;28;20525;-93
2020/12/19 08:31:34;;;;;;;27.10;16.20;;;2.80;99.90;;;;;;5094453;28;20500;-94
2020/12/19 08:34:03;;;;;;;28.50;16.50;;;2.90;99.90;;;;;;5103838;28;20204;-91
2020/12/19 08:36:29;;;;;;;28.20;16.63;;;2.90;99.90;;;;;;5115225;28;20274;-92
2020/12/19 08:39:11;;;;;;;24.70;14.45;;;2.90;99.90;;;;;;5098286;28;20180;-94
2020/12/19 08:41:37;;;;;;;24.65;15.30;;;3.00;99.90;;;;;;5097136;28;20538;-92
2020/12/19 08:44:03;;;;;;;31.35;15.25;;;3.00;99.90;;;;;;5099003;28;20291;-92
2020/12/19 08:46:30;;;;;;;27.70;15.75;;;3.00;99.90;;;;;;5102566;28;20212;-92
2020/12/19 08:49:00;;;;;;;25.58;15.20;;;3.10;99.90;;;;;;5103993;28;20212;-84
2020/12/19 08:51:26;;;;;;;23.75;13.82;;;3.10;99.90;;;;;;5094012;28;20192;-87
2020/12/19 08:53:53;;;;;;;23.20;14.30;;;3.20;99.90;;;;;;5102740;28;20306;-85
2020/12/19 08:56:25;;;;;;;24.05;15.10;;;3.20;99.90;;;;;;5099693;28;20785;-85
2020/12/19 08:58:52;;;;;;;27.25;16.10;;;3.20;99.90;;;;;;5103187;28;20180;-85
2020/12/19 09:01:18;;;;;;;23.33;15.07;;;3.30;99.90;;;;;;5101270;28;20181;-85
2020/12/19 09:03:45;;;;;;;23.30;15.68;;;3.30;99.90;;;;;;5099869;28;20706;-87
2020/12/19 09:06:12;;;;;;;22.70;14.75;;;3.40;99.90;;;;;;5102321;28;20184;-91
2020/12/19 09:08:40;;;;;;;25.30;15.50;;;3.40;99.90;;;;;;5103027;28;20212;-89
2020/12/19 09:11:08;;;;;;;26.95;16.70;;;3.40;99.90;;;;;;5103554;28;20276;-89
2020/12/19 09:13:34;;;;;;;28.40;15.23;;;3.50;99.90;;;;;;5101842;28;20215;-94
2020/12/19 09:16:06;;;;;;;24.55;16.13;;;3.50;99.90;;;;;;5086125;28;20663;-78
2020/12/19 09:18:33;;;;;;;24.17;14.93;;;3.50;99.90;;;;;;5093515;28;20651;-79
2020/12/19 09:21:01;;;;;;;25.98;15.45;;;3.50;99.90;;;;;;5090655;28;20196;-79
2020/12/19 09:23:28;;;;;;;26.02;15.10;;;3.50;99.90;;;;;;5084032;28;20284;-77
2020/12/19 09:25:55;;;;;;;25.42;16.52;;;3.60;99.90;;;;;;5093699;28;20610;-77
2020/12/19 09:28:23;;;;;;;24.45;15.13;;;3.60;99.90;;;;;;5093391;28;20275;-77
2020/12/19 09:30:49;;;;;;;23.70;14.65;;;3.60;99.90;;;;;;5093548;28;20262;-77
2020/12/19 09:33:16;;;;;;;23.25;16.30;;;3.70;99.90;;;;;;5093272;28;20220;-77
2020/12/19 09:35:42;;;;;;;22.63;15.63;;;3.70;99.90;;;;;;5093255;28;20640;-77
2020/12/19 09:38:08;;;;;;;26.05;15.23;;;3.70;99.90;;;;;;5093060;28;20265;-84
2020/12/19 09:40:34;;;;;;;26.60;16.23;;;3.80;99.90;;;;;;5092884;28;20303;-78
2020/12/19 09:43:00;;;;;;;22.88;15.50;;;3.80;99.90;;;;;;5108822;28;20670;-77
2020/12/19 09:45:27;;;;;;;25.48;14.80;;;3.90;99.90;;;;;;5113451;28;20597;-77
2020/12/19 09:47:54;;;;;;;24.13;15.85;;;3.90;99.90;;;;;;5111507;28;20227;-77
2020/12/19 09:50:21;;;;;;;24.77;16.90;;;3.90;99.90;;;;;;5113650;28;20284;-78
2020/12/19 09:52:47;;;;;;;20.85;15.02;;;3.90;99.90;;;;;;5112029;28;20183;-77
2020/12/19 09:55:14;;;;;;;23.02;13.80;;;4.00;99.90;;;;;;5113760;28;20192;-77
2020/12/19 09:57:40;;;;;;;23.65;14.52;;;4.00;99.90;;;;;;5113733;28;20662;-79
2020/12/19 10:00:07;;;;;;;22.05;14.40;;;4.00;99.90;;;;;;5113693;28;20279;-76
2020/12/19 10:02:34;;;;;;;25.52;14.93;;;4.00;99.90;;;;;;5113646;28;20344;-77
2020/12/19 10:05:00;;;;;;;24.90;15.23;;;4.00;99.90;;;;;;5113080;28;20188;-77
2020/12/19 10:07:26;;;;;;;18.47;13.27;;;4.10;99.90;;;;;;5113687;28;20223;-76
2020/12/19 10:09:52;;;;;;;20.23;14.43;;;4.10;99.90;;;;;;5113536;28;20450;-77
2020/12/19 10:12:18;;;;;;;21.63;15.10;;;4.20;99.90;;;;;;5112430;28;20453;-76
2020/12/19 10:14:44;;;;;;;21.70;14.52;;;4.20;99.90;;;;;;5093012;28;20682;-76
2020/12/19 10:17:10;;;;;;;20.30;14.83;;;4.20;99.90;;;;;;5093054;28;20220;-77
2020/12/19 10:19:37;;;;;;;23.77;15.98;;;4.20;99.90;;;;;;5092893;28;20473;-77
2020/12/19 10:22:03;;;;;;;21.50;14.52;;;4.30;99.90;;;;;;5093030;28;20279;-76
2020/12/19 10:24:30;;;;;;;24.73;15.07;;;4.30;99.90;;;;;;5093061;28;20548;-77
2020/12/19 10:26:56;;;;;;;21.88;13.95;;;4.30;99.90;;;;;;5093030;28;20283;-76
2020/12/19 10:29:22;;;;;;;22.88;15.00;;;4.30;99.90;;;;;;5092863;28;20258;-76
2020/12/19 10:31:48;;;;;;;22.40;16.17;;;4.40;99.90;;;;;;5092933;28;20814;-76
2020/12/19 10:34:14;;;;;;;23.60;14.30;;;4.40;99.90;;;;;;5092514;28;20314;-77
2020/12/19 10:36:41;;;;;;;24.10;14.73;;;4.50;99.90;;;;;;5092815;28;20284;-77
2020/12/19 10:39:07;;;;;;;26.23;14.40;;;4.50;99.90;;;;;;5092635;28;20280;-77
2020/12/19 10:41:33;;;;;;;19.10;13.40;;;4.60;99.90;;;;;;5092636;28;20280;-77
2020/12/19 10:43:59;;;;;;;23.73;14.35;;;4.60;99.90;;;;;;5092662;28;20189;-77
2020/12/19 10:46:27;;;;;;;22.23;14.33;;;4.60;99.90;;;;;;5092696;28;20188;-77
2020/12/19 10:48:53;;;;;;;20.45;14.02;;;4.60;99.90;;;;;;5092494;28;20450;-76
2020/12/19 10:51:26;;;;;;;22.85;15.43;;;4.70;99.90;;;;;;5092774;28;20277;-76
2020/12/19 10:53:53;;;;;;;18.77;13.38;;;4.70;99.90;;;;;;5092496;28;20281;-76
2020/12/19 10:56:19;;;;;;;20.92;13.40;;;4.70;99.90;;;;;;5092665;28;20665;-76
2020/12/19 10:58:45;;;;;;;27.27;14.23;;;4.70;99.90;;;;;;5092567;28;20726;-76
2020/12/19 11:01:11;;;;;;;19.88;13.27;;;4.80;99.90;;;;;;5092557;28;20279;-77
2020/12/19 11:03:38;;;;;;;23.73;14.43;;;4.80;99.90;;;;;;5092340;28;20283;-77
2020/12/19 11:06:04;;;;;;;25.75;16.13;;;4.80;99.90;;;;;;5092642;28;20284;-77
2020/12/19 11:08:30;;;;;;;22.05;14.40;;;4.80;99.90;;;;;;5092197;28;20279;-77
2020/12/19 11:10:56;;;;;;;20.52;13.93;;;4.90;99.90;;;;;;5096056;28;20607;-77
2020/12/19 11:13:22;;;;;;;20.13;13.18;;;4.90;99.90;;;;;;5101692;28;20205;-76
2020/12/19 11:15:48;;;;;;;17.60;12.30;;;4.90;99.90;;;;;;5107215;28;20276;-76
2020/12/19 11:18:14;;;;;;;22.25;13.60;;;4.90;99.90;;;;;;5094941;28;20936;-77
2020/12/19 11:20:40;;;;;;;21.50;14.40;;;4.90;99.90;;;;;;5095797;28;20216;-77
2020/12/19 11:23:06;;;;;;;20.10;13.10;;;5.00;99.90;;;;;;5095977;28;20196;-77
2020/12/19 11:25:32;;;;;;;16.30;12.27;;;5.00;99.90;;;;;;5095917;28;20446;-77
2020/12/19 11:27:59;;;;;;;21.40;13.33;;;5.00;99.90;;;;;;5095901;28;20472;-76
2020/12/19 11:30:25;;;;;;;16.25;12.43;;;5.10;99.90;;;;;;5094837;28;20882;-77
2020/12/19 11:32:53;;;;;;;16.40;12.90;;;5.10;99.90;;;;;;5094409;28;20185;-76
2020/12/19 11:35:19;;;;;;;15.40;11.48;;;5.10;99.90;;;;;;5095713;28;20500;-77
2020/12/19 11:37:46;;;;;;;22.17;12.77;;;5.10;99.90;;;;;;5095828;28;20188;-77
2020/12/19 11:40:12;;;;;;;20.90;12.77;;;5.20;99.90;;;;;;5095558;28;20224;-77
2020/12/19 11:42:38;;;;;;;21.03;12.97;;;5.10;99.90;;;;;;5095525;28;20635;-77
2020/12/19 11:45:05;;;;;;;20.42;12.80;;;5.20;99.90;;;;;;5095106;28;20537;-77
2020/12/19 11:47:31;;;;;;;19.08;13.23;;;5.20;99.90;;;;;;5095642;28;20271;-77
2020/12/19 11:49:57;;;;;;;16.70;12.18;;;5.20;99.90;;;;;;5094508;28;20219;-77
2020/12/19 11:52:23;;;;;;;15.97;12.20;;;5.20;99.90;;;;;;5095610;28;20215;-76
2020/12/19 11:54:49;;;;;;;17.25;12.57;;;5.20;99.90;;;;;;5093965;28;20482;-76
2020/12/19 11:57:17;;;;;;;16.92;11.57;;;5.30;99.90;;;;;;5102933;28;20188;-76
2020/12/19 11:59:43;;;;;;;17.10;12.02;;;5.30;99.90;;;;;;5100704;28;20188;-76
2020/12/19 12:02:09;;;;;;;15.37;12.70;;;5.30;99.90;;;;;;5101838;28;20628;-76
2020/12/19 12:04:36;;;;;;;17.15;12.38;;;5.30;99.90;;;;;;5104847;28;20524;-76
2020/12/19 12:07:02;;;;;;;16.75;12.05;;;5.30;99.90;;;;;;5106175;28;20235;-76
2020/12/19 12:09:28;;;;;;;17.67;13.43;;;5.40;99.90;;;;;;5094945;28;20188;-76
2020/12/19 12:11:54;;;;;;;17.77;11.47;;;5.40;99.90;;;;;;5105902;28;20184;-76
2020/12/19 12:14:20;;;;;;;14.47;11.30;;;5.40;99.90;;;;;;5097785;28;20822;-76
2020/12/19 12:16:46;;;;;;;15.30;11.05;;;5.40;99.90;;;;;;5094860;28;20451;-76
2020/12/19 12:19:14;;;;;;;12.95;10.98;;;5.40;99.90;;;;;;5092609;28;20650;-76
2020/12/19 12:21:41;;;;;;;17.25;11.63;;;5.40;99.90;;;;;;5091923;28;20260;-76
2020/12/19 12:24:07;;;;;;;15.45;12.00;;;5.50;99.90;;;;;;5098025;28;20184;-76
2020/12/19 12:26:34;;;;;;;15.55;12.13;;;5.50;99.90;;;;;;5104567;28;20212;-76
2020/12/19 12:29:00;;;;;;;18.20;12.55;;;5.50;99.90;;;;;;5105099;28;20274;-77
2020/12/19 12:31:28;;;;;;;14.43;11.27;;;5.50;99.90;;;;;;5104781;28;20581;-76
2020/12/19 12:33:55;;;;;;;17.38;12.13;;;5.50;99.90;;;;;;5115238;28;20219;-76